createdAt,value
2023-03-21T00:01:54.068Z,6.90
2023-03-21T00:04:27.185Z,6.90
2023-03-21T00:06:55.787Z,7.00
2023-03-21T00:09:23.474Z,7.00
2023-03-21T00:11:50.725Z,7.00
2023-03-21T00:14:20.785Z,7.00
2023-03-21T00:16:52.022Z,7.00
2023-03-21T00:19:20.877Z,7.00
2023-03-21T00:22:08.755Z,7.00
2023-03-21T00:24:37.361Z,7.00
2023-03-21T00:29:52.111Z,7.00
2023-03-21T00:32:21.368Z,7.00
2023-03-21T00:35:02.345Z,7.00
2023-03-21T00:37:37.257Z,7.00
2023-03-21T00:40:16.305Z,7.00
2023-03-21T00:42:50.959Z,7.10
2023-03-21T00:45:19.234Z,7.10
2023-03-21T00:47:46.538Z,7.00
2023-03-21T00:50:13.947Z,7.10
2023-03-21T00:52:41.665Z,7.10
2023-03-21T00:55:17.348Z,7.10
2023-03-21T00:57:47.509Z,7.10
2023-03-21T01:00:20.116Z,7.10
2023-03-21T01:03:14.129Z,7.10
2023-03-21T01:06:02.064Z,7.10
2023-03-21T01:08:41.456Z,7.10
2023-03-21T01:11:20.841Z,7.10
2023-03-21T01:13:54.742Z,7.10
2023-03-21T01:16:27.168Z,7.10
2023-03-21T01:18:54.496Z,7.10
2023-03-21T01:21:21.728Z,7.10
2023-03-21T01:23:49.049Z,7.10
2023-03-21T01:26:16.569Z,7.10
2023-03-21T01:28:45.714Z,7.10
2023-03-21T01:31:15.335Z,7.20
2023-03-21T01:33:43.719Z,7.20
2023-03-21T01:36:17.594Z,7.10
2023-03-21T01:38:46.193Z,7.20
2023-03-21T01:41:46.998Z,7.20
2023-03-21T01:44:19.546Z,7.20
2023-03-21T01:47:07.390Z,7.20
2023-03-21T01:49:49.516Z,7.20
2023-03-21T01:52:37.815Z,7.20
2023-03-21T01:55:15.304Z,7.20
2023-03-21T01:58:05.908Z,7.20
2023-03-21T02:00:41.790Z,7.20
2023-03-21T02:03:34.976Z,7.20
2023-03-21T02:06:22.451Z,7.20
2023-03-21T02:08:55.402Z,7.20
2023-03-21T02:11:23.794Z,7.20
2023-03-21T02:13:55.848Z,7.20
2023-03-21T02:16:50.643Z,7.20
2023-03-21T02:19:32.783Z,7.30
2023-03-21T02:22:35.350Z,7.20
2023-03-21T02:25:21.804Z,7.30
2023-03-21T02:28:15.272Z,7.30
2023-03-21T02:31:10.732Z,7.30
2023-03-21T02:33:49.896Z,7.30
2023-03-21T02:36:34.032Z,7.30
2023-03-21T02:39:11.525Z,7.30
2023-03-21T02:41:54.726Z,7.30
2023-03-21T02:45:01.728Z,7.30
2023-03-21T02:47:41.848Z,7.40
2023-03-21T02:50:37.353Z,7.30
2023-03-21T02:53:08.628Z,7.30
2023-03-21T02:55:38.985Z,7.40
2023-03-21T02:58:13.178Z,7.40
2023-03-21T03:00:48.497Z,7.40
2023-03-21T03:03:33.875Z,7.40
2023-03-21T03:06:07.724Z,7.40
2023-03-21T03:09:14.765Z,7.40
2023-03-21T03:11:44.547Z,7.40
2023-03-21T03:14:53.006Z,7.40
2023-03-21T03:17:47.356Z,7.40
2023-03-21T03:20:24.668Z,7.40
2023-03-21T03:23:20.881Z,7.40
2023-03-21T03:26:17.527Z,7.40
2023-03-21T03:28:54.887Z,7.40
2023-03-21T03:31:33.385Z,7.40
2023-03-21T03:34:07.128Z,7.40
2023-03-21T03:36:48.013Z,7.40
2023-03-21T03:39:18.702Z,7.40
2023-03-21T03:42:27.921Z,7.40
2023-03-21T03:45:05.485Z,7.40
2023-03-21T03:47:55.918Z,7.40
2023-03-21T03:50:32.560Z,7.40
2023-03-21T03:53:22.835Z,7.50
2023-03-21T03:55:55.728Z,7.40
2023-03-21T03:58:30.989Z,7.40
2023-03-21T04:01:03.631Z,7.50
2023-03-21T04:03:46.076Z,7.40
2023-03-21T04:06:16.905Z,7.40
2023-03-21T04:08:45.271Z,7.50
2023-03-21T04:11:15.775Z,7.50
2023-03-21T04:13:47.336Z,7.50
2023-03-21T04:16:20.461Z,7.50
2023-03-21T04:18:49.014Z,7.50
2023-03-21T04:21:19.544Z,7.50
2023-03-21T04:23:46.812Z,7.50
2023-03-21T04:26:14.585Z,7.50
2023-03-21T04:29:00.776Z,7.50
2023-03-21T04:31:49.853Z,7.50
2023-03-21T04:34:17.737Z,7.50
2023-03-21T04:36:53.929Z,7.50
2023-03-21T04:39:21.915Z,7.50
2023-03-21T04:41:50.514Z,7.50
2023-03-21T04:44:18.468Z,7.50
2023-03-21T04:46:46.723Z,7.50
2023-03-21T04:49:13.968Z,7.50
2023-03-21T04:51:45.092Z,7.50
2023-03-21T04:56:42.770Z,7.50
2023-03-21T04:59:13.436Z,7.50
2023-03-21T05:01:43.816Z,7.50
2023-03-21T05:04:14.166Z,7.50
2023-03-21T05:06:44.843Z,7.60
2023-03-21T05:09:15.590Z,7.60
2023-03-21T05:11:43.777Z,7.60
2023-03-21T05:14:19.999Z,7.60
2023-03-21T05:16:55.980Z,7.60
2023-03-21T05:19:34.596Z,7.60
2023-03-21T05:22:06.505Z,7.60
2023-03-21T05:24:34.383Z,7.60
2023-03-21T05:27:03.543Z,7.60
2023-03-21T05:29:38.866Z,7.60
2023-03-21T05:32:07.700Z,7.60
2023-03-21T05:34:35.048Z,7.60
2023-03-21T05:37:02.473Z,7.70
2023-03-21T05:39:46.008Z,7.70
2023-03-21T05:42:19.766Z,7.70
2023-03-21T05:44:47.909Z,7.70
2023-03-21T05:47:17.088Z,7.70
2023-03-21T05:49:47.163Z,7.70
2023-03-21T05:52:15.473Z,7.70
2023-03-21T05:54:42.855Z,7.80
2023-03-21T05:57:11.510Z,7.80
2023-03-21T06:00:18.468Z,7.80
2023-03-21T06:03:00.600Z,7.80
2023-03-21T06:05:39.353Z,7.90
2023-03-21T06:08:15.696Z,7.90
2023-03-21T06:10:45.344Z,7.90
2023-03-21T06:13:13.720Z,7.90
2023-03-21T06:15:41.356Z,8.00
2023-03-21T06:18:15.213Z,8.00
2023-03-21T06:20:52.015Z,8.10
2023-03-21T06:23:19.206Z,8.10
2023-03-21T06:25:48.884Z,8.20
2023-03-21T06:28:16.155Z,8.30
2023-03-21T06:30:44.230Z,8.40
2023-03-21T06:33:19.502Z,8.40
2023-03-21T06:35:53.170Z,8.40
2023-03-21T06:38:21.060Z,8.40
2023-03-21T06:40:49.598Z,8.40
2023-03-21T06:43:17.698Z,8.50
2023-03-21T06:45:46.047Z,8.50
2023-03-21T06:48:13.391Z,8.50
2023-03-21T06:50:50.237Z,8.50
2023-03-21T06:53:20.910Z,8.50
2023-03-21T06:56:09.644Z,8.60
2023-03-21T06:58:38.148Z,8.60
2023-03-21T07:01:06.952Z,8.60
2023-03-21T07:03:40.188Z,8.60
2023-03-21T07:06:11.690Z,8.50
2023-03-21T07:08:41.102Z,8.50
2023-03-21T07:11:09.197Z,8.50
2023-03-21T07:13:36.886Z,8.50
2023-03-21T07:16:05.920Z,8.60
2023-03-21T07:18:33.347Z,8.60
2023-03-21T07:21:00.694Z,8.60
2023-03-21T07:23:28.683Z,8.60
2023-03-21T07:25:56.551Z,8.60
2023-03-21T07:28:24.327Z,8.60
2023-03-21T07:30:55.257Z,8.60
2023-03-21T07:33:23.148Z,8.60
2023-03-21T07:35:51.554Z,8.60
2023-03-21T07:38:20.279Z,8.70
2023-03-21T07:40:48.331Z,8.70
2023-03-21T07:43:16.887Z,8.70
2023-03-21T07:45:45.611Z,8.70
2023-03-21T07:48:15.076Z,8.70
2023-03-21T07:50:42.324Z,8.80
2023-03-21T07:53:10.180Z,8.80
2023-03-21T07:55:37.729Z,8.90
2023-03-21T07:58:05.401Z,8.90
2023-03-21T08:00:33.097Z,9.00
2023-03-21T08:03:00.960Z,9.00
2023-03-21T08:05:33.487Z,9.00
2023-03-21T08:08:01.491Z,9.00
2023-03-21T08:10:30.740Z,9.10
2023-03-21T08:12:58.259Z,9.10
2023-03-21T08:15:25.560Z,9.20
2023-03-21T08:17:52.760Z,9.20
2023-03-21T08:20:23.320Z,9.20
2023-03-21T08:22:51.151Z,9.30
2023-03-21T08:25:21.606Z,9.30
2023-03-21T08:27:49.929Z,9.50
2023-03-21T08:30:22.635Z,9.50
2023-03-21T08:32:50.929Z,9.60
2023-03-21T08:35:20.280Z,9.70
2023-03-21T08:37:47.687Z,9.80
2023-03-21T08:40:17.605Z,9.90
2023-03-21T08:42:46.402Z,10.00
2023-03-21T08:45:16.134Z,10.10
2023-03-21T08:47:43.596Z,10.10
2023-03-21T08:50:15.494Z,10.10
2023-03-21T08:52:43.348Z,10.10
2023-03-21T08:55:11.610Z,10.20
2023-03-21T08:57:38.936Z,10.10
2023-03-21T09:00:14.412Z,10.10
2023-03-21T09:02:44.292Z,10.10
2023-03-21T09:05:13.249Z,10.10
2023-03-21T09:07:41.572Z,10.10
2023-03-21T09:10:21.100Z,10.20
2023-03-21T09:12:53.831Z,10.20
2023-03-21T09:15:24.267Z,10.20
2023-03-21T09:17:54.078Z,10.10
2023-03-21T09:20:25.974Z,10.20
2023-03-21T09:22:53.601Z,10.40
2023-03-21T09:25:21.314Z,10.50
2023-03-21T09:27:53.650Z,10.40
2023-03-21T09:30:26.246Z,10.40
2023-03-21T09:32:55.519Z,10.40
2023-03-21T09:35:24.737Z,10.50
2023-03-21T09:37:51.914Z,10.60
2023-03-21T09:40:56.300Z,10.60
2023-03-21T09:43:39.637Z,10.60
2023-03-21T09:46:27.406Z,10.60
2023-03-21T09:49:10.017Z,10.60
2023-03-21T09:51:45.778Z,10.60
2023-03-21T09:54:18.941Z,10.60
2023-03-21T09:56:47.627Z,10.60
2023-03-21T09:59:40.079Z,10.70
2023-03-21T10:02:38.126Z,10.70
2023-03-21T10:05:25.651Z,10.90
2023-03-21T10:07:58.633Z,11.00
2023-03-21T10:10:31.290Z,10.90
2023-03-21T10:12:58.512Z,10.90
2023-03-21T10:15:27.224Z,10.80
2023-03-21T10:18:24.695Z,10.70
2023-03-21T10:20:52.588Z,10.60
2023-03-21T10:23:25.511Z,10.70
2023-03-21T10:26:07.934Z,10.80
2023-03-21T10:28:52.470Z,10.80
2023-03-21T10:31:26.169Z,10.70
2023-03-21T10:33:56.149Z,10.50
2023-03-21T10:36:27.041Z,10.50
2023-03-21T10:39:00.846Z,10.50
2023-03-21T10:41:28.334Z,10.40
2023-03-21T10:44:17.820Z,10.40
2023-03-21T10:46:57.048Z,10.30
2023-03-21T10:49:27.064Z,10.20
2023-03-21T10:51:58.353Z,10.30
2023-03-21T10:54:30.807Z,10.40
2023-03-21T10:57:04.815Z,10.60
2023-03-21T10:59:47.091Z,10.80
2023-03-21T11:02:24.198Z,10.80
2023-03-21T11:04:54.527Z,10.70
2023-03-21T11:07:25.388Z,10.80
2023-03-21T11:09:58.144Z,10.70
2023-03-21T11:12:29.798Z,10.60
2023-03-21T11:14:57.886Z,10.60
2023-03-21T11:17:29.392Z,10.60
2023-03-21T11:20:08.969Z,10.60
2023-03-21T11:22:43.322Z,10.80
2023-03-21T11:25:27.846Z,10.90
2023-03-21T11:27:56.141Z,10.90
2023-03-21T11:30:26.711Z,11.00
2023-03-21T11:32:56.827Z,11.20
2023-03-21T11:35:32.055Z,11.40
2023-03-21T11:37:59.718Z,11.70
2023-03-21T11:40:31.885Z,12.20
2023-03-21T11:43:00.512Z,12.30
2023-03-21T11:45:30.397Z,12.10
2023-03-21T11:48:00.187Z,11.80
2023-03-21T11:50:37.303Z,11.70
2023-03-21T11:53:19.348Z,11.90
2023-03-21T11:56:27.999Z,12.10
2023-03-21T11:59:18.815Z,12.40
2023-03-21T12:01:59.699Z,12.60
2023-03-21T12:04:36.788Z,12.20
2023-03-21T12:07:06.965Z,11.70
2023-03-21T12:10:09.731Z,11.40
2023-03-21T12:12:45.894Z,11.10
2023-03-21T12:15:20.702Z,10.90
2023-03-21T12:18:18.856Z,10.90
2023-03-21T12:21:05.070Z,10.80
2023-03-21T12:24:00.353Z,10.80
2023-03-21T12:26:46.081Z,11.00
2023-03-21T12:29:27.282Z,11.00
2023-03-21T12:32:19.499Z,11.10
2023-03-21T12:35:00.384Z,11.30
2023-03-21T12:37:41.611Z,11.30
2023-03-21T12:40:24.040Z,11.60
2023-03-21T12:43:01.536Z,11.60
2023-03-21T12:45:46.548Z,11.40
2023-03-21T12:48:43.144Z,11.20
2023-03-21T12:51:17.997Z,11.00
2023-03-21T12:54:00.597Z,11.00
2023-03-21T12:56:30.461Z,11.00
2023-03-21T12:59:20.553Z,11.00
2023-03-21T13:01:50.400Z,10.80
2023-03-21T13:04:33.995Z,10.70
2023-03-21T13:07:06.593Z,10.60
2023-03-21T13:09:39.978Z,10.50
2023-03-21T13:12:19.468Z,10.60
2023-03-21T13:15:07.892Z,10.80
2023-03-21T13:17:44.092Z,11.20
2023-03-21T13:20:38.625Z,11.40
2023-03-21T13:23:08.361Z,11.40
2023-03-21T13:25:46.879Z,11.30
2023-03-21T13:28:25.581Z,11.30
2023-03-21T13:30:53.236Z,11.40
2023-03-21T13:33:32.989Z,11.40
2023-03-21T13:36:07.111Z,11.20
2023-03-21T13:38:36.331Z,11.10
2023-03-21T13:41:09.014Z,11.10
2023-03-21T13:43:51.607Z,11.20
2023-03-21T13:46:25.316Z,11.20
2023-03-21T13:48:58.588Z,11.30
2023-03-21T13:51:42.026Z,11.30
2023-03-21T13:54:15.566Z,11.20
2023-03-21T13:56:48.200Z,11.00
2023-03-21T13:59:38.835Z,11.00
2023-03-21T14:02:12.587Z,10.90
2023-03-21T14:04:53.865Z,10.80
2023-03-21T14:07:41.337Z,10.80
2023-03-21T14:10:20.104Z,10.60
2023-03-21T14:12:48.855Z,10.50
2023-03-21T14:15:22.808Z,10.40
2023-03-21T14:17:59.412Z,10.30
2023-03-21T14:20:32.792Z,10.40
2023-03-21T14:23:00.165Z,10.60
2023-03-21T14:25:41.047Z,10.60
2023-03-21T14:28:16.821Z,10.60
2023-03-21T14:30:44.750Z,10.70
2023-03-21T14:33:28.971Z,10.80
2023-03-21T14:35:59.629Z,10.90
2023-03-21T14:38:32.214Z,10.80
2023-03-21T14:40:59.445Z,10.70
2023-03-21T14:43:27.971Z,10.50
2023-03-21T14:45:56.744Z,10.40
2023-03-21T14:48:35.492Z,10.40
2023-03-21T14:51:10.077Z,10.40
2023-03-21T14:53:42.189Z,10.40
2023-03-21T14:56:25.585Z,10.40
2023-03-21T14:58:53.861Z,10.30
2023-03-21T15:01:30.979Z,10.20
2023-03-21T15:04:00.589Z,10.10
2023-03-21T15:06:27.928Z,10.00
2023-03-21T15:09:01.012Z,9.90
2023-03-21T15:11:31.887Z,10.00
2023-03-21T15:14:02.122Z,10.10
2023-03-21T15:16:31.202Z,10.10
2023-03-21T15:19:00.336Z,10.20
2023-03-21T15:21:49.599Z,10.20
2023-03-21T15:24:26.968Z,10.30
2023-03-21T15:27:00.640Z,10.30
2023-03-21T15:29:29.241Z,10.30
2023-03-21T15:31:56.747Z,10.40
2023-03-21T15:34:29.124Z,10.40
2023-03-21T15:37:01.091Z,10.30
2023-03-21T15:39:29.581Z,10.20
2023-03-21T15:42:07.140Z,10.10
2023-03-21T15:44:35.402Z,9.90
2023-03-21T15:47:03.019Z,9.80
2023-03-21T15:49:32.295Z,9.70
2023-03-21T15:52:06.820Z,9.60
2023-03-21T15:54:56.050Z,9.60
2023-03-21T15:57:37.913Z,9.60
2023-03-21T16:00:18.200Z,9.50
2023-03-21T16:02:46.121Z,9.60
2023-03-21T16:05:34.166Z,9.60
2023-03-21T16:08:19.671Z,9.60
2023-03-21T16:10:48.748Z,9.60
2023-03-21T16:13:17.371Z,9.60
2023-03-21T16:15:45.819Z,9.60
2023-03-21T16:18:16.165Z,9.60
2023-03-21T16:20:46.022Z,9.50
2023-03-21T16:23:14.810Z,9.50
2023-03-21T16:25:43.813Z,9.50
2023-03-21T16:28:17.610Z,9.40
2023-03-21T16:30:45.009Z,9.40
2023-03-21T16:33:12.901Z,9.30
2023-03-21T16:35:40.336Z,9.30
2023-03-21T16:38:07.656Z,9.30
2023-03-21T16:40:37.845Z,9.20
2023-03-21T16:43:05.626Z,9.30
2023-03-21T16:45:33.135Z,9.30
2023-03-21T16:48:00.867Z,9.20
2023-03-21T16:50:37.110Z,9.20
2023-03-21T16:53:04.591Z,9.20
2023-03-21T16:55:33.842Z,9.20
2023-03-21T16:58:01.270Z,9.20
2023-03-21T17:00:30.756Z,9.20
2023-03-21T17:03:01.627Z,9.20
2023-03-21T17:05:32.683Z,9.20
2023-03-21T17:08:02.298Z,9.20
2023-03-21T17:10:31.872Z,9.20
2023-03-21T17:12:59.418Z,9.20
2023-03-21T17:15:26.926Z,9.20
2023-03-21T17:17:55.587Z,9.30
2023-03-21T17:20:26.065Z,9.30
2023-03-21T17:22:53.425Z,9.40
2023-03-21T17:25:20.990Z,9.30
2023-03-21T17:27:48.851Z,9.40
2023-03-21T17:30:28.317Z,9.40
2023-03-21T17:32:56.267Z,9.30
2023-03-21T17:35:25.140Z,9.30
2023-03-21T17:37:53.464Z,9.20
2023-03-21T17:40:25.128Z,9.20
2023-03-21T17:42:53.068Z,9.10
2023-03-21T17:45:21.736Z,9.10
2023-03-21T17:47:49.657Z,9.10
2023-03-21T17:50:25.933Z,9.00
2023-03-21T17:52:56.427Z,9.00
2023-03-21T17:55:24.498Z,9.00
2023-03-21T17:57:52.172Z,9.00
2023-03-21T18:00:23.672Z,9.00
2023-03-21T18:02:51.516Z,8.90
2023-03-21T18:05:21.192Z,8.80
2023-03-21T18:08:19.138Z,8.70
2023-03-21T18:10:36.957Z,8.70
2023-03-21T18:13:04.516Z,8.70
2023-03-21T18:15:31.932Z,8.70
2023-03-21T18:17:59.151Z,8.70
2023-03-21T18:20:49.942Z,8.60
2023-03-21T18:23:16.092Z,8.60
2023-03-21T18:25:43.563Z,8.60
2023-03-21T18:28:12.453Z,8.60
2023-03-21T18:31:05.264Z,8.50
2023-03-21T18:33:29.921Z,8.60
2023-03-21T18:35:59.376Z,8.60
2023-03-21T18:38:28.242Z,8.50
2023-03-21T18:40:56.195Z,8.50
2023-03-21T18:46:12.652Z,8.60
2023-03-21T18:48:40.512Z,8.50
2023-03-21T18:51:09.504Z,8.50
2023-03-21T18:53:37.854Z,8.60
2023-03-21T18:56:09.942Z,8.60
2023-03-21T18:58:38.570Z,8.70
2023-03-21T19:01:06.376Z,8.80
2023-03-21T19:03:37.010Z,8.80
2023-03-21T19:06:06.352Z,8.90
2023-03-21T19:08:38.240Z,8.90
2023-03-21T19:11:07.091Z,9.00
2023-03-21T19:13:34.806Z,9.00
2023-03-21T19:16:03.068Z,9.00
2023-03-21T19:18:52.097Z,9.00
2023-03-21T19:21:19.683Z,9.10
2023-03-21T19:24:22.919Z,9.10
2023-03-21T19:26:35.260Z,9.10
2023-03-21T19:29:02.709Z,9.10
2023-03-21T19:31:31.033Z,9.20
2023-03-21T19:33:59.415Z,9.10
2023-03-21T19:36:27.234Z,9.10
2023-03-21T19:38:54.532Z,9.10
2023-03-21T19:41:21.920Z,9.10
2023-03-21T19:43:55.036Z,9.20
2023-03-21T19:46:25.315Z,9.10
2023-03-21T19:48:56.488Z,9.20
2023-03-21T19:51:29.686Z,9.20
2023-03-21T19:53:58.973Z,9.20
2023-03-21T19:56:27.855Z,9.10
2023-03-21T19:58:56.162Z,9.10
2023-03-21T20:01:24.938Z,9.20
2023-03-21T20:03:53.373Z,9.20
2023-03-21T20:06:24.238Z,9.10
2023-03-21T20:09:37.617Z,9.10
2023-03-21T20:11:41.544Z,9.10
2023-03-21T20:14:09.419Z,9.10
2023-03-21T20:16:37.365Z,9.10
2023-03-21T20:19:08.681Z,9.10
2023-03-21T20:21:47.640Z,9.20
2023-03-21T20:24:20.016Z,9.20
2023-03-21T20:26:49.366Z,9.20
2023-03-21T20:30:05.728Z,9.20
2023-03-21T20:32:04.610Z,9.20
2023-03-21T20:34:32.961Z,9.10
2023-03-21T20:37:00.872Z,9.10
2023-03-21T20:39:29.889Z,9.10
2023-03-21T20:41:59.421Z,9.10
2023-03-21T20:44:51.760Z,9.10
2023-03-21T20:47:15.659Z,9.10
2023-03-21T20:49:43.016Z,9.10
2023-03-21T20:54:57.671Z,9.10
2023-03-21T20:57:27.018Z,9.00
2023-03-21T20:59:57.495Z,9.00
2023-03-21T21:02:24.887Z,8.90
2023-03-21T21:05:21.890Z,8.90
2023-03-21T21:07:44.040Z,8.90
2023-03-21T21:10:15.124Z,8.90
2023-03-21T21:12:45.166Z,8.90
2023-03-21T21:15:16.532Z,8.90
2023-03-21T21:18:04.663Z,8.90
2023-03-21T21:20:33.523Z,8.90
2023-03-21T21:23:01.197Z,8.90
2023-03-21T21:25:32.068Z,8.90
2023-03-21T21:28:01.519Z,8.90
2023-03-21T21:30:32.473Z,8.80
2023-03-21T21:33:00.700Z,8.80
2023-03-21T21:35:28.369Z,8.90
2023-03-21T21:37:55.957Z,8.90
2023-03-21T21:40:23.279Z,8.90
2023-03-21T21:42:51.198Z,8.90
2023-03-21T21:45:18.905Z,9.00
2023-03-21T21:47:46.796Z,9.00
2023-03-21T21:50:14.247Z,9.00
2023-03-21T21:52:43.687Z,9.00
2023-03-21T21:55:13.021Z,9.00
2023-03-21T21:57:40.853Z,8.90
2023-03-21T22:00:13.420Z,8.90
2023-03-21T22:02:41.775Z,8.90
2023-03-21T22:05:10.429Z,8.80
2023-03-21T22:07:38.929Z,8.80
2023-03-21T22:10:06.997Z,8.80
2023-03-21T22:12:35.084Z,8.80
2023-03-21T22:15:07.516Z,8.80
2023-03-21T22:17:36.158Z,8.80
2023-03-21T22:20:09.273Z,8.80
2023-03-21T22:22:37.299Z,8.70
2023-03-21T22:25:06.633Z,8.70
2023-03-21T22:27:34.002Z,8.70
2023-03-21T22:30:04.683Z,8.50
2023-03-21T22:32:35.188Z,8.40
2023-03-21T22:35:02.553Z,8.20
2023-03-21T22:37:34.281Z,8.10
2023-03-21T22:40:02.298Z,8.00
2023-03-21T22:42:29.475Z,7.90
2023-03-21T22:44:56.806Z,7.80
2023-03-21T22:47:24.608Z,7.70
2023-03-21T22:49:52.140Z,7.80
2023-03-21T22:52:19.370Z,7.80
2023-03-21T22:54:47.493Z,7.70
2023-03-21T22:57:15.985Z,7.70
2023-03-21T22:59:43.159Z,7.60
2023-03-21T23:02:10.778Z,7.50
2023-03-21T23:04:38.455Z,7.50
2023-03-21T23:07:05.808Z,7.50
2023-03-21T23:09:33.743Z,7.40
2023-03-21T23:12:01.063Z,7.50
2023-03-21T23:14:28.512Z,7.50
2023-03-21T23:17:00.006Z,7.40
2023-03-21T23:19:28.723Z,7.40
2023-03-21T23:21:56.810Z,7.50
2023-03-21T23:24:24.317Z,7.40
2023-03-21T23:26:52.009Z,7.50
2023-03-21T23:29:20.058Z,7.50
2023-03-21T23:31:47.397Z,7.50
2023-03-21T23:34:14.780Z,7.60
2023-03-21T23:36:42.224Z,7.70
2023-03-21T23:39:09.780Z,7.80
2023-03-21T23:41:37.138Z,7.80
2023-03-21T23:44:04.911Z,7.80
2023-03-21T23:46:32.222Z,7.90
2023-03-21T23:48:59.491Z,7.90
2023-03-21T23:51:26.751Z,7.90
2023-03-21T23:53:56.431Z,8.00
2023-03-21T23:56:25.974Z,8.00
2023-03-21T23:58:53.596Z,8.00
